Quincy, WA (98848)

10:58 PM PDT on March 27, 2015 (GMT -0700)
NWS Spotter #62 | | Change Station
CLOSE
Current Station
Personal Weather Station
Location: Quincy, WA
Elevation: 1297 ft
Nearby Weather Stations

Elev 1297 ft 47.23 °N, 119.86 °W | Updated 1 second ago

Overcast
Overcast
58.6 °F
Feels Like 58.6 °F
N
0.2
Wind Variable Wind from WNW
Gusts 2.5 mph

Today
High -- | Low -- °F
--% Chance of Precip.
Yesterday
High -- | Low -- °F
Precip. -- in
6:48 AM 7:21 PM
First Quarter, 59% visible
Pressure 29.80 in
Visibility 10.0 miles
Clouds Scattered Clouds 9000 ft
Overcast 11000 ft
Dew Point 47 °F
Humidity 66%
Rainfall 0.00 in
Snow Depth Not available.
UV 0.0 out of 12
Pollen 9.70 out of 12
Air Quality Not available.
Flu Activity Not available.
METAR KEPH 280553Z AUTO 23008KT 10SM SCT090 OVC110 13/09 A2980 RMK AO2 SLP090 T01330094 10211 20133 58009

More Conditions Fewer Conditions

Pressure 29.80 in
Visibility 10.0 miles
Clouds Scattered Clouds 9000 ft
Overcast 11000 ft
Dew Point 47 °F
Humidity 66%
Rainfall 0.00 in
Snow Depth Not available.
UV 0.0 out of 12
Pollen 9.70 out of 12
Air Quality Not available.
Flu Activity Not available.
METAR KEPH 280553Z AUTO 23008KT 10SM SCT090 OVC110 13/09 A2980 RMK AO2 SLP090 T01330094 10211 20133 58009

More Conditions Fewer Conditions

10-Day Weather Forecast

Almanac

Astronomy

Mar. 27, 2015 Rise Set
Actual Time
Civil Twilight
Nautical Twilight
Astronomical Twilight
Moon
Length of Visible Light
Length of Day
Tomorrow will be .
, % of the Moon is Illuminated

Today's Extremes

State Highs State Lows

Community

WunderPhotos

Upload Photos

1,808,934 photos uploaded!

WunderBlogs® & News

Nearby

Air Quality

  Air Quality AQ Index Pollutant
Not available.

Snow Depth

Station Depth Elevation

Earthquake Activity

City Distance Mag. Time & Date
Minimum magnitude displayed is 2.5.

Coastal Water Temperatures

Place Temperature

Stations

Nearby Weather Stations

Station Location Temp. Windchill Dew Point Humidity Wind Precip. Elev Updated Type